Time;durP1;ratioP1;P1;durP2;ratioP2;P2;SDS_P1;SDS_P2;PMS_P1;PMS_P2;Temp;Humidity;BMP_temperature;BMP_pressure;BME280_temperature;BME280_humidity;BME280_pressure;Samples;Min_cycle;Max_cycle;Signal;HPM_P1;HPM_P2
2023/01/04 00:02:39;;;;;;;10.60;7.10;;;6.10;99.90;;;4.54;100.00;101797.53;4985155;28;20054;-70
2023/01/04 00:05:07;;;;;;;10.20;6.28;;;6.00;99.90;;;4.45;100.00;101799.06;4987903;28;20045;-70
2023/01/04 00:07:34;;;;;;;11.82;6.30;;;6.00;99.90;;;4.46;100.00;101799.09;4988314;28;20061;-70
2023/01/04 00:10:02;;;;;;;9.63;7.10;;;6.00;99.90;;;4.48;100.00;101807.84;4989552;28;20442;-70
2023/01/04 00:12:29;;;;;;;9.70;6.68;;;5.90;99.90;;;4.43;100.00;101805.94;4989584;28;20046;-69
2023/01/04 00:14:56;;;;;;;11.93;7.32;;;5.90;99.90;;;4.39;100.00;101799.78;4988344;28;20438;-70
2023/01/04 00:17:23;;;;;;;7.22;5.82;;;5.90;99.90;;;4.32;100.00;101808.31;4971570;28;20043;-70
2023/01/04 00:19:50;;;;;;;9.25;6.70;;;5.80;99.90;;;4.24;100.00;101808.09;4989044;28;20073;-70
2023/01/04 00:22:17;;;;;;;9.63;7.30;;;5.80;99.90;;;4.32;100.00;101816.97;4987847;28;20050;-70
2023/01/04 00:24:44;;;;;;;9.70;6.80;;;5.80;99.90;;;4.29;100.00;101814.31;4955640;28;20054;-70
2023/01/04 00:27:12;;;;;;;8.52;6.72;;;5.80;99.90;;;4.28;100.00;101812.53;4994333;28;20069;-70
2023/01/04 00:29:39;;;;;;;9.57;6.65;;;5.70;99.90;;;4.22;100.00;101807.19;4995879;28;20046;-70
2023/01/04 00:32:06;;;;;;;8.27;7.00;;;5.60;99.90;;;4.14;100.00;101809.59;4978204;28;20057;-70
2023/01/04 00:34:33;;;;;;;8.48;6.63;;;6.30;99.90;;;4.11;100.00;101804.28;5010245;28;20594;-70
2023/01/04 00:37:00;;;;;;;7.85;7.03;;;5.60;99.90;;;4.07;100.00;101799.84;4995382;28;20054;-69
2023/01/04 00:39:28;;;;;;;9.43;7.43;;;5.50;99.90;;;4.11;100.00;101797.38;4977999;28;20046;-70
2023/01/04 00:42:03;;;;;;;8.88;7.18;;;6.20;99.90;;;4.02;100.00;101804.94;4994221;28;20042;-70
2023/01/04 00:44:33;;;;;;;8.98;6.93;;;5.70;99.90;;;3.98;100.00;101787.47;5011742;28;20575;-69
2023/01/04 00:47:02;;;;;;;9.47;6.63;;;5.50;99.90;;;3.88;100.00;101795.88;5014211;28;20095;-70
2023/01/04 00:49:30;;;;;;;7.57;6.82;;;5.50;99.90;;;3.93;100.00;101786.47;4997517;28;20292;-70
2023/01/04 00:51:58;;;;;;;10.98;7.25;;;5.40;99.90;;;3.87;100.00;101773.28;4997627;28;20045;-70
2023/01/04 00:54:27;;;;;;;10.73;8.27;;;5.50;99.90;;;3.81;100.00;101776.59;5013157;28;20048;-70
2023/01/04 00:56:54;;;;;;;12.52;8.50;;;5.30;99.90;;;3.74;100.00;101779.88;5014628;28;20042;-70
2023/01/04 00:59:21;;;;;;;9.43;7.72;;;5.30;99.90;;;3.73;100.00;101775.53;4996226;28;20136;-70
2023/01/04 01:01:49;;;;;;;9.35;8.43;;;5.20;99.90;;;3.69;100.00;101770.25;4994068;28;20079;-69
2023/01/04 01:04:21;;;;;;;9.68;7.78;;;5.20;99.90;;;3.63;100.00;101767.44;4994329;28;20046;-69
2023/01/04 01:06:49;;;;;;;7.22;6.53;;;5.20;99.90;;;3.59;100.00;101768.22;4994399;28;20050;-69
2023/01/04 01:09:16;;;;;;;10.48;7.78;;;5.20;99.90;;;3.61;100.00;101770.88;4994032;28;20050;-69
2023/01/04 01:11:44;;;;;;;7.95;6.47;;;5.10;99.90;;;3.57;100.00;101775.09;4993927;28;20058;-70
2023/01/04 01:14:21;;;;;;;8.52;6.80;;;5.10;99.90;;;3.62;100.00;101773.50;5025094;28;20041;-69
2023/01/04 01:16:49;;;;;;;12.15;7.07;;;5.10;99.90;;;3.56;100.00;101773.34;4978290;28;20153;-70
2023/01/04 01:19:25;;;;;;;10.25;7.75;;;5.00;99.90;;;3.53;100.00;101781.06;4989836;28;20047;-69
2023/01/04 01:21:52;;;;;;;10.60;8.30;;;5.00;99.90;;;3.49;100.00;101777.50;4990357;28;20050;-70
2023/01/04 01:24:20;;;;;;;7.80;6.93;;;5.00;99.90;;;3.43;100.00;101772.09;4990283;28;20117;-70
2023/01/04 01:26:47;;;;;;;10.48;7.20;;;5.00;99.90;;;3.41;100.00;101779.00;4975578;28;20631;-69
2023/01/04 01:29:14;;;;;;;9.73;7.53;;;4.90;99.90;;;3.46;100.00;101773.91;4990759;28;20054;-70
2023/01/04 01:31:41;;;;;;;8.68;7.03;;;5.00;99.90;;;3.52;100.00;101766.31;4994040;28;20491;-70
2023/01/04 01:34:09;;;;;;;8.23;7.15;;;5.00;99.90;;;3.47;100.00;101771.38;4993898;28;20057;-70
2023/01/04 01:36:36;;;;;;;8.77;6.68;;;5.00;99.90;;;3.39;100.00;101767.66;4992829;28;20735;-70
2023/01/04 01:39:05;;;;;;;10.25;6.43;;;5.00;99.90;;;3.31;100.00;101776.97;4990438;28;20050;-70
2023/01/04 01:41:34;;;;;;;8.05;6.40;;;4.90;99.90;;;3.24;100.00;101771.59;4990488;28;20061;-69
2023/01/04 01:44:24;;;;;;;9.30;6.63;;;6.00;99.90;;;3.44;100.00;101773.00;5003854;28;20046;-70
2023/01/04 01:46:53;;;;;;;6.72;6.00;;;4.90;99.90;;;3.41;100.00;101779.00;4964062;28;20073;-70
2023/01/04 01:49:42;;;;;;;7.68;6.38;;;4.90;99.90;;;3.26;100.00;101774.25;4993871;28;20052;-69
2023/01/04 01:52:20;;;;;;;8.75;7.75;;;4.90;99.90;;;3.36;100.00;101778.88;4994651;28;20057;-70
2023/01/04 01:54:59;;;;;;;7.60;6.07;;;4.90;99.90;;;3.50;100.00;101773.16;5007556;28;20073;-70
2023/01/04 01:57:31;;;;;;;9.98;8.02;;;4.80;99.90;;;3.49;100.00;101768.78;4990448;28;20159;-70
2023/01/04 02:00:06;;;;;;;8.13;7.22;;;4.90;99.90;;;3.53;100.00;101765.47;4987101;28;20522;-70
2023/01/04 02:02:50;;;;;;;9.43;7.18;;;4.90;99.90;;;3.60;100.00;101764.78;4985672;28;20054;-70
2023/01/04 02:05:19;;;;;;;9.63;7.50;;;5.00;99.90;;;3.52;100.00;101761.97;4972114;28;20055;-70
2023/01/04 02:07:48;;;;;;;7.80;6.30;;;5.00;99.90;;;3.55;100.00;101769.84;4954166;28;20106;-69
2023/01/04 02:10:16;;;;;;;10.27;7.10;;;5.00;99.90;;;3.59;100.00;101759.50;4986523;28;20039;-70
2023/01/04 02:12:45;;;;;;;7.38;6.53;;;5.10;99.90;;;3.56;100.00;101760.34;4960240;28;20057;-70
2023/01/04 02:15:12;;;;;;;9.25;6.78;;;5.00;99.90;;;3.58;100.00;101755.16;5009462;28;20107;-69
2023/01/04 02:18:03;;;;;;;8.88;6.40;;;5.10;99.90;;;3.62;100.00;101739.66;4993690;28;20057;-70
2023/01/04 02:20:44;;;;;;;8.00;6.07;;;5.00;99.90;;;3.58;100.00;101723.91;5009541;28;20053;-69
2023/01/04 02:24:07;;;;;;;8.80;6.25;;;5.00;99.90;;;3.45;100.00;101722.72;4993258;28;20052;-69
2023/01/04 02:27:03;;;;;;;8.20;6.30;;;5.00;99.90;;;3.44;100.00;101721.84;5010424;28;20046;-69
2023/01/04 02:29:48;;;;;;;8.63;5.93;;;4.90;99.90;;;3.45;100.00;101728.81;4992643;28;20080;-70
2023/01/04 02:32:58;;;;;;;7.57;6.25;;;5.00;99.90;;;3.45;100.00;101718.41;5006027;28;20046;-70
2023/01/04 02:35:52;;;;;;;7.22;6.03;;;4.90;99.90;;;3.51;100.00;101720.25;4991440;28;20050;-70
2023/01/04 02:38:47;;;;;;;9.45;6.97;;;4.90;99.90;;;3.55;100.00;101722.13;4991043;28;20410;-69
2023/01/04 02:41:57;;;;;;;10.65;7.15;;;5.00;99.90;;;3.55;100.00;101714.31;4989347;28;20050;-70
2023/01/04 02:50:49;;;;;;;9.07;8.10;;;5.00;99.90;;;3.86;100.00;101702.09;5009618;28;20046;-69
2023/01/04 02:53:23;;;;;;;8.60;7.35;;;5.10;99.90;;;3.91;100.00;101699.63;5001199;28;20085;-70
2023/01/04 02:56:37;;;;;;;10.65;7.97;;;5.20;99.90;;;4.04;100.00;101701.66;4993248;28;20046;-70
2023/01/04 02:59:47;;;;;;;8.75;7.88;;;5.30;99.90;;;4.01;100.00;101711.16;5008770;28;20072;-70
2023/01/04 03:08:41;;;;;;;10.75;7.72;;;5.40;99.90;;;4.10;100.00;101713.97;4952176;28;20424;-69
2023/01/04 03:14:36;;;;;;;12.00;9.73;;;5.40;99.90;;;4.20;100.00;101705.53;4982471;28;20057;-70
2023/01/04 03:17:11;;;;;;;13.38;10.13;;;5.40;99.90;;;4.28;100.00;101702.22;4947322;28;20475;-70
2023/01/04 03:19:50;;;;;;;13.13;10.60;;;5.60;99.90;;;4.41;100.00;101699.06;4984842;28;20057;-70
2023/01/04 03:37:32;;;;;;;17.08;13.70;;;6.00;99.90;;;4.95;100.00;101678.50;4984949;28;20795;-71
2023/01/04 03:49:13;;;;;;;;;;;6.10;99.90;;;4.93;100.00;101677.59;5009359;28;20045;-71
2023/01/04 03:51:43;;;;;;;22.58;15.55;;;6.10;99.90;;;4.99;100.00;101682.91;5008265;28;19936;-71
2023/01/04 03:54:23;;;;;;;23.80;16.23;;;6.20;99.90;;;4.99;100.00;101669.88;4986223;28;20642;-71
2023/01/04 03:56:52;;;;;;;25.05;16.98;;;6.20;99.90;;;5.03;100.00;101670.81;4988143;28;20097;-71
2023/01/04 03:59:21;;;;;;;23.65;16.95;;;6.20;99.90;;;5.06;100.00;101676.09;5004328;28;20062;-71
2023/01/04 04:01:49;;;;;;;21.08;15.57;;;6.20;99.90;;;5.03;100.00;101661.25;4972041;28;20096;-71
2023/01/04 04:09:48;;;;;;;21.88;17.67;;;6.20;99.90;;;5.14;100.00;101645.78;4989597;28;20061;-71
2023/01/04 04:12:15;;;;;;;26.17;17.85;;;6.30;99.90;;;5.25;100.00;101635.59;4971989;28;20051;-71
2023/01/04 04:14:42;;;;;;;27.65;20.35;;;6.40;99.90;;;5.21;100.00;101632.03;4987419;28;20415;-71
2023/01/04 04:17:09;;;;;;;25.55;17.88;;;6.40;99.90;;;5.22;100.00;101632.88;4987869;28;20061;-71
2023/01/04 04:19:36;;;;;;;27.92;18.13;;;6.50;99.90;;;5.27;100.00;101631.25;4989155;28;20379;-71
2023/01/04 04:22:03;;;;;;;23.52;17.83;;;6.40;99.90;;;5.30;100.00;101626.09;4971957;28;20097;-71
2023/01/04 04:24:30;;;;;;;24.83;17.52;;;6.50;99.90;;;5.31;100.00;101624.38;4987372;28;20081;-71
2023/01/04 04:26:57;;;;;;;25.08;17.98;;;6.50;99.90;;;5.29;100.00;101629.56;4987870;28;20406;-71
2023/01/04 04:29:24;;;;;;;26.55;18.88;;;6.50;99.90;;;5.31;100.00;101629.59;4971084;28;20054;-71
2023/01/04 04:31:52;;;;;;;24.83;18.88;;;6.50;99.90;;;5.31;100.00;101625.25;4971678;28;20478;-71
2023/01/04 04:34:19;;;;;;;24.88;17.67;;;6.50;99.90;;;5.32;100.00;101628.75;4971165;28;20150;-71
2023/01/04 04:36:46;;;;;;;22.58;17.58;;;6.50;99.90;;;5.32;100.00;101624.38;5003673;28;20057;-71
2023/01/04 04:39:14;;;;;;;25.23;18.95;;;6.50;99.90;;;5.34;100.00;101621.81;4988702;28;20054;-71
2023/01/04 04:41:41;;;;;;;21.10;16.08;;;6.50;99.90;;;5.37;100.00;101612.28;4988006;28;20058;-71
2023/01/04 04:44:11;;;;;;;26.45;18.63;;;6.50;99.90;;;5.37;100.00;101609.69;5002156;28;20046;-71
2023/01/04 04:46:39;;;;;;;23.20;17.23;;;6.50;99.90;;;5.46;100.00;101610.69;4991329;28;20054;-71
2023/01/04 04:49:06;;;;;;;22.42;15.82;;;6.60;99.90;;;5.45;100.00;101607.19;5008543;28;20046;-71
2023/01/04 04:51:34;;;;;;;21.92;16.38;;;6.50;99.90;;;5.50;100.00;101607.28;4991258;28;20453;-71
2023/01/04 04:54:02;;;;;;;23.30;16.00;;;6.60;99.90;;;5.51;100.00;101598.59;4974604;28;20045;-71
2023/01/04 04:56:29;;;;;;;21.17;15.27;;;6.70;99.90;;;5.56;100.00;101590.84;5006775;28;20050;-72
2023/01/04 04:58:56;;;;;;;17.40;13.65;;;6.70;99.90;;;5.62;100.00;101594.44;4990572;28;20053;-71
2023/01/04 05:01:23;;;;;;;19.40;14.85;;;6.70;99.90;;;5.58;100.00;101592.63;4969805;28;20057;-71
2023/01/04 05:03:50;;;;;;;19.90;14.80;;;6.70;99.90;;;5.64;100.00;101590.13;4967660;28;20542;-72
2023/01/04 05:06:17;;;;;;;21.13;15.00;;;6.70;99.90;;;5.62;100.00;101596.16;4969366;28;20050;-71
2023/01/04 05:08:45;;;;;;;17.50;13.13;;;6.80;99.90;;;5.66;100.00;101587.53;4983691;28;20134;-71
2023/01/04 05:11:13;;;;;;;18.65;13.38;;;7.40;99.90;;;5.67;100.00;101594.53;4967771;28;20051;-71
2023/01/04 05:13:40;;;;;;;17.55;13.27;;;6.80;99.90;;;5.67;100.00;101584.94;4983757;28;20581;-71
2023/01/04 05:16:09;;;;;;;16.70;13.10;;;6.80;99.90;;;5.74;100.00;101590.28;4975219;28;20042;-71
2023/01/04 05:18:36;;;;;;;20.88;17.48;;;6.80;99.90;;;5.75;100.00;101598.13;4990829;28;20564;-71
2023/01/04 05:21:04;;;;;;;16.95;12.13;;;6.80;99.90;;;5.81;100.00;101599.94;4991774;28;20042;-71
2023/01/04 05:23:31;;;;;;;17.35;12.68;;;6.90;99.90;;;5.88;100.00;101588.75;4991510;28;20124;-71
2023/01/04 05:26:02;;;;;;;15.55;11.23;;;6.90;99.90;;;5.92;100.00;101590.56;4992257;28;20073;-71
2023/01/04 05:28:29;;;;;;;12.77;9.98;;;7.00;99.90;;;5.99;100.00;101590.63;4990769;28;20459;-71
2023/01/04 05:30:56;;;;;;;14.88;9.52;;;7.10;99.90;;;6.03;100.00;101589.88;4990770;28;20042;-70
2023/01/04 05:33:30;;;;;;;14.23;12.65;;;7.10;99.90;;;6.07;100.00;101587.31;4990540;28;20054;-71
2023/01/04 05:36:01;;;;;;;13.50;11.35;;;7.20;99.90;;;6.12;100.00;101574.31;4991270;28;20039;-71
2023/01/04 05:38:29;;;;;;;11.00;8.77;;;7.20;99.90;;;6.15;100.00;101571.72;4990578;28;20050;-71
2023/01/04 05:40:56;;;;;;;13.32;9.82;;;7.20;99.90;;;6.21;100.00;101579.66;4990657;28;20125;-71
2023/01/04 05:43:23;;;;;;;8.25;6.72;;;7.20;99.90;;;6.24;100.00;101576.19;4980322;28;20054;-71
2023/01/04 05:45:54;;;;;;;8.98;6.85;;;7.20;99.90;;;6.26;100.00;101571.00;4974197;28;20423;-71
2023/01/04 05:48:23;;;;;;;9.70;7.80;;;7.30;99.90;;;6.29;100.00;101584.09;5004204;28;20066;-71
2023/01/04 05:50:51;;;;;;;9.43;6.97;;;7.30;99.90;;;6.30;100.00;101573.69;4979120;28;20039;-71
2023/01/04 05:53:19;;;;;;;7.97;6.35;;;7.30;99.90;;;6.32;100.00;101574.59;4974148;28;20569;-71
2023/01/04 05:55:49;;;;;;;7.05;5.47;;;7.40;99.90;;;6.36;100.00;101570.28;4974073;28;20545;-71
2023/01/04 05:58:16;;;;;;;7.80;6.18;;;7.40;99.90;;;6.45;100.00;101567.75;4974353;28;20081;-71
2023/01/04 06:00:43;;;;;;;10.45;6.53;;;7.40;99.90;;;6.43;100.00;101566.88;4981576;28;20058;-71
2023/01/04 06:03:10;;;;;;;5.93;4.30;;;7.50;99.90;;;6.47;100.00;101560.81;4989751;28;20396;-71
2023/01/04 06:05:37;;;;;;;5.82;4.63;;;7.50;99.90;;;6.53;100.00;101565.25;4990574;28;20046;-71
2023/01/04 06:08:05;;;;;;;7.53;4.32;;;7.90;99.90;;;6.52;100.00;101567.00;4990446;28;20251;-71
2023/01/04 06:10:32;;;;;;;7.50;4.10;;;7.50;99.90;;;6.55;100.00;101565.28;4990693;28;20042;-71
2023/01/04 06:12:59;;;;;;;5.53;4.32;;;7.50;99.90;;;6.59;100.00;101553.97;4973653;28;20461;-70
2023/01/04 06:15:26;;;;;;;4.88;4.18;;;7.60;99.90;;;6.59;100.00;101560.09;4991333;28;20045;-71
2023/01/04 06:17:53;;;;;;;6.40;4.07;;;7.60;99.90;;;6.62;100.00;101548.78;4973732;28;20042;-71
2023/01/04 06:20:20;;;;;;;5.80;4.13;;;7.70;99.90;;;6.63;100.00;101553.16;4936938;28;20118;-71
2023/01/04 06:22:47;;;;;;;6.13;4.28;;;7.70;99.90;;;6.63;100.00;101548.81;4968300;28;20215;-71
2023/01/04 06:25:14;;;;;;;4.80;4.22;;;8.60;99.90;;;6.62;100.00;101546.16;4952515;28;20050;-71
2023/01/04 06:27:42;;;;;;;5.18;4.68;;;7.60;99.90;;;6.60;100.00;101545.28;4953061;28;20671;-71
2023/01/04 06:30:09;;;;;;;4.72;4.28;;;7.60;99.90;;;6.63;100.00;101540.06;4952793;28;20061;-71
2023/01/04 06:32:36;;;;;;;6.13;5.53;;;7.70;99.90;;;6.67;100.00;101531.41;4952162;28;20102;-72
2023/01/04 06:35:04;;;;;;;7.22;4.65;;;7.60;99.90;;;6.69;100.00;101526.19;4952520;28;20133;-71
2023/01/04 06:37:31;;;;;;;5.75;4.32;;;7.70;99.90;;;6.64;100.00;101528.78;4968890;28;20047;-71
2023/01/04 06:39:58;;;;;;;4.25;3.85;;;9.60;99.90;;;6.67;100.00;101532.28;4971085;28;20085;-71
2023/01/04 06:42:43;;;;;;;5.05;4.15;;;7.70;99.90;;;6.66;100.00;101530.53;4973592;28;20543;-71
2023/01/04 06:45:12;;;;;;;6.25;4.28;;;7.70;99.90;;;6.61;100.00;101539.19;5009259;28;20441;-71
2023/01/04 06:47:40;;;;;;;5.07;4.13;;;7.60;99.90;;;6.57;100.00;101538.28;5009587;28;20042;-71
2023/01/04 06:50:10;;;;;;;7.38;4.47;;;7.60;99.90;;;6.59;100.00;101551.38;4992423;28;20046;-71
2023/01/04 06:52:37;;;;;;;5.90;4.45;;;7.60;99.90;;;6.55;100.00;101539.97;4992421;28;20563;-71
2023/01/04 06:55:08;;;;;;;5.63;4.53;;;7.60;99.90;;;6.58;100.00;101542.66;4992187;28;20469;-71
2023/01/04 06:57:35;;;;;;;4.45;3.85;;;7.60;99.90;;;6.56;100.00;101536.53;5008530;28;20485;-71
2023/01/04 07:00:05;;;;;;;6.85;4.00;;;7.60;99.90;;;6.59;100.00;101528.72;4998412;28;20058;-71
2023/01/04 07:02:33;;;;;;;5.15;4.28;;;7.60;99.90;;;6.57;100.00;101537.41;4985810;28;20049;-71
2023/01/04 07:05:00;;;;;;;4.88;3.92;;;7.60;99.90;;;6.55;100.00;101532.13;4985626;28;20058;-70
2023/01/04 07:07:28;;;;;;;4.28;3.70;;;7.70;99.90;;;6.56;100.00;101540.88;4985517;28;20050;-71
2023/01/04 07:09:55;;;;;;;7.53;4.05;;;7.60;99.90;;;6.56;100.00;101538.25;4970505;28;20038;-71
2023/01/04 07:12:22;;;;;;;5.82;3.58;;;7.60;99.90;;;6.56;100.00;101525.19;4987160;28;20575;-71
2023/01/04 07:14:49;;;;;;;5.90;4.13;;;7.70;99.90;;;6.60;100.00;101524.34;4988799;28;20043;-71
2023/01/04 07:17:16;;;;;;;4.85;3.30;;;7.70;99.90;;;6.64;100.00;101519.19;4972661;28;20129;-71
2023/01/04 07:19:43;;;;;;;6.97;3.63;;;7.70;99.90;;;6.69;100.00;101516.63;4957866;28;20058;-71
2023/01/04 07:22:10;;;;;;;6.18;3.63;;;8.00;99.90;;;6.71;100.00;101512.28;4991767;28;20047;-70
2023/01/04 07:24:38;;;;;;;5.35;4.05;;;8.10;99.90;;;6.72;100.00;101510.56;4991005;28;20161;-71
2023/01/04 07:27:05;;;;;;;4.25;2.88;;;7.80;99.90;;;6.73;100.00;101501.84;4988242;28;20478;-71
2023/01/04 07:29:32;;;;;;;3.45;2.88;;;7.80;99.90;;;6.78;100.00;101501.00;4956581;28;20132;-71
2023/01/04 07:31:59;;;;;;;5.97;5.35;;;9.50;99.90;;;6.80;100.00;101495.78;5005314;28;20062;-71
2023/01/04 07:34:28;;;;;;;4.47;3.30;;;7.80;99.90;;;6.86;100.00;101505.44;4988336;28;20046;-71
2023/01/04 07:36:55;;;;;;;5.38;2.80;;;7.80;99.90;;;6.89;100.00;101493.28;5004108;28;20592;-71
2023/01/04 07:39:23;;;;;;;4.38;2.85;;;7.80;99.90;;;6.90;100.00;101489.78;4972426;28;20050;-71
2023/01/04 07:41:50;;;;;;;3.88;3.30;;;7.90;99.90;;;6.90;100.00;101481.94;4956883;28;20458;-71
2023/01/04 07:44:25;;;;;;;3.78;3.08;;;7.90;99.90;;;6.94;100.00;101482.81;4988587;28;20058;-71
2023/01/04 07:46:52;;;;;;;3.10;2.80;;;7.90;99.90;;;6.97;100.00;101490.72;4992416;28;20050;-71
2023/01/04 07:49:20;;;;;;;4.63;3.53;;;8.00;99.90;;;6.97;100.00;101495.06;5007760;28;20045;-71
2023/01/04 07:51:49;;;;;;;4.70;3.17;;;8.80;99.90;;;7.03;100.00;101500.38;5008016;28;20042;-71
2023/01/04 07:54:17;;;;;;;5.32;4.40;;;8.40;99.90;;;7.01;100.00;101491.63;4996964;28;20053;-71
2023/01/04 07:56:47;;;;;;;2.85;2.60;;;8.00;99.90;;;7.03;100.00;101484.69;4988780;28;20053;-71
2023/01/04 07:59:17;;;;;;;2.90;2.42;;;8.00;99.90;;;7.12;100.00;101478.66;4988404;28;20346;-71
2023/01/04 08:01:44;;;;;;;3.13;2.30;;;8.10;99.90;;;7.15;100.00;101479.53;4972212;28;20054;-71
2023/01/04 08:04:13;;;;;;;3.95;2.60;;;8.20;99.90;;;7.18;100.00;101470.81;4971741;28;20046;-71
2023/01/04 08:06:42;;;;;;;2.67;2.15;;;8.60;99.90;;;7.21;100.00;101469.13;4972326;28;20042;-72
2023/01/04 08:09:11;;;;;;;3.17;2.30;;;8.20;99.90;;;7.23;100.00;101458.63;5004559;28;20566;-71
2023/01/04 08:11:38;;;;;;;4.30;2.80;;;8.20;99.90;;;7.30;100.00;101464.81;4987857;28;20050;-71
2023/01/04 08:14:05;;;;;;;3.00;2.28;;;8.30;99.90;;;7.31;100.00;101458.69;4971426;28;20050;-71
2023/01/04 08:16:36;;;;;;;2.83;2.00;;;8.30;99.90;;;7.35;100.00;101450.03;4988003;28;20045;-71
2023/01/04 08:19:06;;;;;;;4.30;2.08;;;8.30;99.90;;;7.44;100.00;101447.44;5004204;28;20052;-71
2023/01/04 08:21:35;;;;;;;2.85;1.83;;;8.80;99.90;;;7.50;100.00;101457.97;4989353;28;20034;-71
2023/01/04 08:24:03;;;;;;;4.53;2.25;;;8.50;99.90;;;7.57;100.00;101442.28;4971481;28;20050;-71
2023/01/04 08:26:31;;;;;;;2.38;1.80;;;8.50;99.70;;;7.68;100.00;101448.47;5003939;28;20053;-71
2023/01/04 08:28:58;;;;;;;6.75;4.75;;;8.50;99.50;;;7.73;100.00;101445.88;4987214;28;20502;-70
2023/01/04 08:31:30;;;;;;;2.67;1.52;;;8.60;99.50;;;7.77;100.00;101447.63;5000151;28;20065;-71
2023/01/04 08:34:02;;;;;;;3.00;1.70;;;8.70;99.50;;;7.81;100.00;101454.63;5000289;28;20054;-71
2023/01/04 08:36:33;;;;;;;1.83;1.50;;;8.70;99.20;;;7.84;100.00;101445.94;4984186;28;20055;-71
2023/01/04 08:39:05;;;;;;;4.68;1.80;;;8.80;99.20;;;7.84;100.00;101449.41;4984013;28;20138;-71
2023/01/04 08:41:49;;;;;;;2.17;1.70;;;9.30;99.50;;;7.85;100.00;101442.44;4967930;28;20101;-71
2023/01/04 08:44:37;;;;;;;3.50;1.95;;;10.50;99.80;;;7.90;100.00;101446.84;5004460;28;20081;-71
2023/01/04 08:47:04;;;;;;;5.38;2.40;;;8.80;99.10;;;7.90;100.00;101444.22;5009171;28;20488;-72
2023/01/04 08:49:32;;;;;;;2.60;2.35;;;8.80;99.20;;;7.89;100.00;101436.31;4995049;28;20502;-71
2023/01/04 08:51:59;;;;;;;4.25;3.08;;;8.80;99.20;;;7.92;100.00;101450.34;4995014;28;20046;-71
2023/01/04 08:54:26;;;;;;;5.88;2.15;;;8.90;99.00;;;8.00;100.00;101446.84;4994551;28;20514;-71
2023/01/04 08:56:53;;;;;;;2.60;2.17;;;8.90;98.90;;;8.01;100.00;101444.25;5012502;28;20041;-71
2023/01/04 08:59:20;;;;;;;3.80;1.80;;;8.90;98.80;;;7.99;100.00;101459.09;4993470;28;20050;-71
2023/01/04 09:01:47;;;;;;;3.00;2.15;;;9.10;98.80;;;8.05;100.00;101451.25;4991635;28;20511;-71
2023/01/04 09:04:14;;;;;;;3.95;2.08;;;9.00;98.60;;;8.07;100.00;101451.25;4992438;28;20153;-71
2023/01/04 09:06:42;;;;;;;5.22;2.10;;;9.00;98.50;;;8.09;100.00;101449.53;4991067;28;20132;-71
2023/01/04 09:09:09;;;;;;;2.97;1.80;;;9.30;98.50;;;8.10;100.00;101435.53;4991342;28;20055;-71
2023/01/04 09:11:40;;;;;;;7.50;2.42;;;9.10;98.40;;;8.13;100.00;101456.50;4991640;28;20054;-71
2023/01/04 09:14:09;;;;;;;4.50;2.20;;;9.10;98.30;;;8.16;100.00;101442.56;4990666;28;20100;-71
2023/01/04 09:16:36;;;;;;;2.90;1.95;;;9.10;98.20;;;8.21;100.00;101446.94;4974869;28;20038;-71
2023/01/04 09:19:05;;;;;;;6.32;2.65;;;9.20;98.20;;;8.23;100.00;101439.97;4990787;28;20053;-71
2023/01/04 09:21:32;;;;;;;2.08;1.60;;;9.20;97.90;;;8.29;100.00;101439.09;4990827;28;20046;-71
2023/01/04 09:23:59;;;;;;;5.20;1.83;;;9.20;97.70;;;8.39;100.00;101437.38;4990448;28;20507;-70
2023/01/04 09:26:27;;;;;;;3.55;2.03;;;9.30;97.50;;;8.38;100.00;101420.75;4974605;28;20050;-70
2023/01/04 09:28:55;;;;;;;3.58;2.47;;;9.30;97.70;;;8.36;100.00;101417.25;4975833;28;20490;-70
2023/01/04 09:31:26;;;;;;;6.43;2.00;;;9.70;97.70;;;8.45;100.00;101431.28;4971526;28;20042;-70
2023/01/04 09:33:55;;;;;;;5.32;2.30;;;9.40;97.50;;;8.45;100.00;101420.78;4987225;28;20402;-70
2023/01/04 09:36:41;;;;;;;3.75;3.05;;;9.40;97.40;;;8.47;100.00;101424.28;4971661;28;20070;-70
2023/01/04 09:39:09;;;;;;;3.08;1.90;;;9.40;97.40;;;8.48;100.00;101421.63;4972747;28;20055;-70
2023/01/04 09:42:01;;;;;;;2.10;1.60;;;9.40;97.40;;;8.51;100.00;101429.56;4971065;28;20089;-71
2023/01/04 09:44:50;;;;;;;3.13;1.90;;;9.50;97.40;;;8.51;100.00;101420.81;5007066;28;20556;-70
2023/01/04 09:48:03;;;;;;;6.38;2.30;;;9.40;97.40;;;8.56;100.00;101419.06;4997678;28;20052;-70
2023/01/04 09:50:35;;;;;;;4.72;1.73;;;9.50;97.30;;;8.54;100.00;101414.69;5011444;28;20046;-70
2023/01/04 09:53:32;;;;;;;10.57;2.22;;;9.60;97.40;;;8.57;100.00;101409.44;4992810;28;20054;-70
2023/01/04 09:56:16;;;;;;;3.55;1.80;;;9.50;97.30;;;8.57;100.00;101419.94;4987572;28;20054;-70
2023/01/04 09:58:45;;;;;;;2.00;1.73;;;9.50;97.50;;;8.57;100.00;101407.69;4970029;28;20411;-70
2023/01/04 10:01:26;;;;;;;4.15;1.70;;;9.50;97.40;;;8.61;100.00;101414.72;4990283;28;20050;-70
2023/01/04 10:04:12;;;;;;;4.95;1.85;;;9.50;97.50;;;8.67;100.00;101410.34;4990575;28;20426;-70
2023/01/04 10:06:39;;;;;;;3.25;1.67;;;9.60;97.40;;;8.68;100.00;101393.72;5006675;28;20065;-69
2023/01/04 10:09:13;;;;;;;5.70;2.13;;;9.60;97.50;;;8.70;100.00;101397.22;4974009;28;20054;-70
2023/01/04 10:12:25;;;;;;;3.47;1.65;;;9.60;97.40;;;8.72;100.00;101384.97;4990173;28;20427;-71
2023/01/04 10:15:14;;;;;;;4.10;1.60;;;10.20;97.50;;;8.75;100.00;101401.59;4973213;28;20038;-70
2023/01/04 10:18:00;;;;;;;2.95;1.45;;;9.60;97.40;;;8.78;100.00;101382.34;4970555;28;20532;-70
2023/01/04 10:21:03;;;;;;;2.83;1.58;;;9.70;97.30;;;8.85;100.00;101388.47;4957394;28;20569;-70
2023/01/04 10:24:42;;;;;;;1.92;1.40;;;9.80;97.40;;;8.84;100.00;101384.97;4969842;28;20051;-70
2023/01/04 10:27:51;;;;;;;1.97;1.60;;;9.70;97.30;;;8.86;100.00;101369.22;4970504;28;20050;-70
2023/01/04 10:30:49;;;;;;;2.85;1.98;;;9.70;97.30;;;8.86;100.00;101356.09;4972831;28;20053;-71
2023/01/04 10:33:34;;;;;;;2.70;1.63;;;9.70;97.50;;;8.90;100.00;101363.09;4969958;28;20059;-70
2023/01/04 10:36:01;;;;;;;3.70;1.88;;;9.80;97.40;;;8.91;100.00;101364.84;4986164;28;20106;-70
2023/01/04 10:38:38;;;;;;;3.42;1.73;;;9.80;97.60;;;8.96;100.00;101376.19;4985920;28;20551;-69
2023/01/04 10:41:12;;;;;;;6.05;1.98;;;10.00;97.60;;;8.98;100.00;101374.47;4986130;28;20651;-70
2023/01/04 10:44:16;;;;;;;4.15;3.20;;;9.90;97.50;;;8.97;100.00;101363.97;4990874;28;20115;-70
2023/01/04 10:47:15;;;;;;;2.70;2.17;;;9.90;97.70;;;8.95;100.00;101361.31;5008932;28;20053;-70
2023/01/04 10:49:56;;;;;;;4.30;2.90;;;9.90;97.60;;;8.99;100.00;101373.59;4989393;28;20556;-70
2023/01/04 10:52:35;;;;;;;5.15;2.92;;;9.90;97.50;;;8.98;100.00;101390.22;4993360;28;20057;-70
2023/01/04 10:55:10;;;;;;;3.83;2.92;;;9.90;97.60;;;9.02;100.00;101349.06;5008882;28;20045;-70
2023/01/04 10:58:01;;;;;;;7.45;3.92;;;9.90;97.40;;;9.00;100.00;101345.56;5009120;28;20510;-70
2023/01/04 11:00:40;;;;;;;3.67;2.33;;;9.90;97.40;;;8.99;100.00;101344.72;4995372;28;20057;-70
2023/01/04 11:03:41;;;;;;;3.58;1.83;;;10.00;97.40;;;9.05;100.00;101342.06;4985367;28;20047;-70
2023/01/04 11:06:37;;;;;;;4.00;2.45;;;10.00;97.40;;;9.03;100.00;101346.44;4971372;28;20046;-70
2023/01/04 11:09:42;;;;;;;3.97;2.47;;;9.90;97.60;;;9.05;100.00;101357.81;4985316;28;20416;-69
2023/01/04 11:12:15;;;;;;;3.72;2.60;;;10.00;97.80;;;9.03;100.00;101340.31;4985255;28;20043;-69
2023/01/04 11:14:43;;;;;;;2.88;2.05;;;10.00;97.80;;;9.03;100.00;101330.69;4988974;28;20046;-70
2023/01/04 11:17:11;;;;;;;2.55;2.20;;;10.20;97.90;;;9.04;100.00;101329.81;4988785;28;20038;-70
2023/01/04 11:19:40;;;;;;;2.40;1.90;;;10.00;97.90;;;9.08;100.00;101333.31;4973120;28;20525;-70
2023/01/04 11:22:24;;;;;;;2.65;1.75;;;10.50;98.10;;;9.04;100.00;101327.19;4987835;28;20153;-70
2023/01/04 11:25:00;;;;;;;2.35;1.50;;;10.00;98.10;;;9.04;100.00;101327.19;4989626;28;20049;-70
2023/01/04 11:28:26;;;;;;;7.57;1.63;;;10.70;98.30;;;9.03;100.00;101316.69;4975908;28;20066;-70